Time;durP1;ratioP1;P1;durP2;ratioP2;P2;SDS_P1;SDS_P2;PMS_P1;PMS_P2;Temp;Humidity;BMP_temperature;BMP_pressure;BME280_temperature;BME280_humidity;BME280_pressure;Samples;Min_cycle;Max_cycle;Signal;HPM_P1;HPM_P2
2023/06/07 00:03:19;;;;;;;14.70;9.03;;;;;15.80;101443.00;;;;10499540;28;20213;-77
2023/06/07 00:08:23;;;;;;;14.20;8.20;;;;;15.80;101446.00;;;;10481213;28;20267;-72
2023/06/07 00:13:25;;;;;;;14.03;9.17;;;;;15.80;101443.00;;;;10528841;27;20190;-72
2023/06/07 00:18:28;;;;;;;11.20;8.10;;;;;15.80;101446.00;;;;10504643;28;20716;-72
2023/06/07 00:23:30;;;;;;;11.10;8.87;;;;;15.80;101458.00;;;;10480876;28;20292;-78
2023/06/07 00:28:32;;;;;;;16.07;8.67;;;;;15.70;101454.00;;;;10509829;28;20221;-82
2023/06/07 00:33:34;;;;;;;15.83;8.90;;;;;15.60;101454.00;;;;10504318;28;20209;-82
2023/06/07 00:38:36;;;;;;;14.40;9.33;;;;;15.60;101440.00;;;;10482536;28;20236;-81
2023/06/07 00:43:38;;;;;;;14.23;8.47;;;;;15.50;101446.00;;;;10507164;27;20246;-81
2023/06/07 00:48:41;;;;;;;17.13;8.93;;;;;15.40;101437.00;;;;10513385;27;20228;-83
2023/06/07 00:53:47;;;;;;;17.07;9.03;;;;;15.30;101435.00;;;;10484805;28;20570;-82
2023/06/07 00:58:49;;;;;;;17.17;9.17;;;;;15.30;101439.00;;;;10501849;28;20207;-82
2023/06/07 01:03:51;;;;;;;15.07;9.03;;;;;15.20;101430.00;;;;10500513;28;20299;-82
2023/06/07 01:08:53;;;;;;;15.57;9.73;;;;;15.10;101436.00;;;;10484385;28;20305;-80
2023/06/07 01:13:56;;;;;;;15.30;9.20;;;;;15.10;101438.00;;;;10484510;28;20197;-81
2023/06/07 01:18:58;;;;;;;16.70;9.07;;;;;15.00;101436.00;;;;10484394;28;20202;-81
2023/06/07 01:24:03;;;;;;;15.40;9.97;;;;;14.90;101427.00;;;;10451188;28;20198;-83
2023/06/07 01:29:06;;;;;;;14.93;9.07;;;;;14.80;101427.00;;;;10466753;28;20687;-81
2023/06/07 01:34:11;;;;;;;13.57;9.40;;;;;14.70;101435.00;;;;10484022;28;20669;-81
2023/06/07 01:39:14;;;;;;;14.67;9.73;;;;;14.70;101432.00;;;;10499326;28;20614;-82
2023/06/07 01:44:18;;;;;;;14.83;9.40;;;;;14.60;101423.00;;;;10481829;28;20239;-82
2023/06/07 01:49:20;;;;;;;17.30;10.23;;;;;14.40;101434.00;;;;10455663;28;20674;-81
2023/06/07 01:54:22;;;;;;;22.20;9.57;;;;;14.30;101437.00;;;;10517637;28;20630;-81
2023/06/07 01:59:33;;;;;;;16.57;11.13;;;;;14.30;101437.00;;;;10504454;27;20204;-82
2023/06/07 02:04:40;;;;;;;16.00;9.40;;;;;14.30;101424.00;;;;10498666;28;20201;-81
2023/06/07 02:09:47;;;;;;;15.87;10.67;;;;;14.20;101428.00;;;;10464073;28;20220;-79
2023/06/07 02:14:52;;;;;;;18.93;10.47;;;;;14.10;101426.00;;;;10496498;28;20213;-82
2023/06/07 02:19:55;;;;;;;21.77;10.77;;;;;14.10;101431.00;;;;10498501;28;20197;-82
2023/06/07 02:24:58;;;;;;;14.97;9.90;;;;;14.00;101420.00;;;;10480238;28;20229;-82
2023/06/07 02:30:00;;;;;;;21.20;10.90;;;;;14.00;101429.00;;;;10537472;28;20224;-81
2023/06/07 02:35:07;;;;;;;19.03;9.77;;;;;13.90;101420.00;;;;10522645;28;20212;-82
2023/06/07 02:40:10;;;;;;;16.97;10.00;;;;;13.80;101425.00;;;;10539959;28;20215;-81
2023/06/07 02:45:13;;;;;;;19.73;10.57;;;;;13.80;101418.00;;;;10539014;28;20199;-81
2023/06/07 02:50:15;;;;;;;14.30;10.47;;;;;13.80;101428.00;;;;10523012;28;20249;-81
2023/06/07 02:55:18;;;;;;;18.53;11.00;;;;;13.70;101411.00;;;;10468275;28;20201;-81
2023/06/07 03:00:20;;;;;;;14.33;10.47;;;;;13.70;101422.00;;;;10538292;28;20217;-82
2023/06/07 03:05:31;;;;;;;18.43;10.63;;;;;13.60;101424.00;;;;10504668;28;20208;-81
2023/06/07 03:10:38;;;;;;;17.80;10.90;;;;;13.60;101428.00;;;;10522275;28;20213;-81
2023/06/07 03:15:45;;;;;;;17.87;11.40;;;;;13.60;101432.00;;;;10522887;28;20201;-81
2023/06/07 03:20:48;;;;;;;16.80;10.63;;;;;13.60;101425.00;;;;10530578;28;20246;-81
2023/06/07 03:25:52;;;;;;;19.53;10.83;;;;;13.60;101431.00;;;;10526411;28;20200;-81
2023/06/07 03:31:00;;;;;;;22.57;11.37;;;;;13.50;101423.00;;;;10486874;28;20304;-81
2023/06/07 03:36:11;;;;;;;24.97;11.87;;;;;13.40;101424.00;;;;10495402;27;20246;-81
2023/06/07 03:41:17;;;;;;;18.53;10.40;;;;;13.40;101430.00;;;;10529413;27;20191;-81
2023/06/07 03:46:19;;;;;;;16.20;11.63;;;;;13.40;101432.00;;;;10529495;27;20216;-81
2023/06/07 03:51:23;;;;;;;18.93;11.03;;;;;13.40;101443.00;;;;10526054;28;20270;-81
2023/06/07 03:56:29;;;;;;;19.10;11.03;;;;;13.40;101443.00;;;;10527596;28;20216;-81
2023/06/07 04:01:32;;;;;;;20.87;11.33;;;;;13.40;101437.00;;;;10528596;28;20246;-75
2023/06/07 04:06:36;;;;;;;20.43;11.60;;;;;13.40;101438.00;;;;10527686;28;20184;-74
2023/06/07 04:11:40;;;;;;;19.00;11.10;;;;;13.40;101446.00;;;;10527780;28;20217;-79
2023/06/07 04:16:42;;;;;;;18.30;11.87;;;;;13.50;101447.00;;;;10530031;28;20603;-80
2023/06/07 04:21:45;;;;;;;18.47;10.90;;;;;13.50;101444.00;;;;10468424;28;20240;-80
2023/06/07 04:26:49;;;;;;;22.20;12.03;;;;;13.60;101441.00;;;;10491209;28;20209;-75
2023/06/07 04:31:56;;;;;;;17.63;11.30;;;;;13.60;101443.00;;;;10465143;28;20228;-75
2023/06/07 04:37:03;;;;;;;18.03;12.17;;;;;13.80;101447.00;;;;10490251;28;20204;-75
2023/06/07 04:42:07;;;;;;;15.37;10.97;;;;;14.00;101445.00;;;;10508376;28;20208;-75
2023/06/07 04:47:10;;;;;;;18.43;11.90;;;;;14.10;101442.00;;;;10491342;28;20209;-74
2023/06/07 04:52:19;;;;;;;15.60;11.20;;;;;14.20;101441.00;;;;10481565;28;20201;-75
2023/06/07 04:57:28;;;;;;;19.20;11.80;;;;;14.40;101445.00;;;;10485089;28;20196;-75
2023/06/07 05:02:36;;;;;;;15.83;11.37;;;;;14.80;101453.00;;;;10484387;28;20198;-75
2023/06/07 05:07:41;;;;;;;15.40;11.43;;;;;15.20;101448.00;;;;10484594;28;20271;-74
2023/06/07 05:12:44;;;;;;;16.37;11.13;;;;;15.50;101463.00;;;;10500301;28;20563;-74
2023/06/07 05:17:49;;;;;;;18.50;11.00;;;;;15.90;101471.00;;;;10484891;28;20213;-75
2023/06/07 05:22:53;;;;;;;18.27;11.63;;;;;15.90;101467.00;;;;10526723;28;20243;-76
2023/06/07 05:27:55;;;;;;;17.20;11.13;;;;;16.10;101460.00;;;;10461052;28;20309;-76
2023/06/07 05:33:15;;;;;;;15.23;10.80;;;;;16.50;101464.00;;;;10428282;28;20190;-76
2023/06/07 05:38:18;;;;;;;17.00;11.00;;;;;17.00;101468.00;;;;10441735;28;20198;-76
2023/06/07 05:43:21;;;;;;;18.67;10.85;;;;;17.50;101467.00;;;;10479151;27;20531;-75
2023/06/07 05:48:24;;;;;;;15.52;10.05;;;;;17.40;101469.00;;;;10526080;27;20531;-76
2023/06/07 05:53:27;;;;;;;19.98;10.75;;;;;17.10;101472.00;;;;10508348;28;20289;-75
2023/06/07 05:58:31;;;;;;;14.02;11.02;;;;;16.90;101473.00;;;;10500181;28;20233;-76
2023/06/07 06:03:33;;;;;;;18.00;10.38;;;;;16.70;101466.00;;;;10462042;28;20202;-75
2023/06/07 06:08:35;;;;;;;16.80;11.40;;;;;16.50;101484.00;;;;10458162;28;20265;-75
2023/06/07 06:13:38;;;;;;;18.10;12.10;;;;;16.50;101488.00;;;;10499451;28;20229;-75
2023/06/07 06:18:43;;;;;;;19.23;11.57;;;;;16.60;101485.00;;;;10499826;28;20551;-76
2023/06/07 06:23:45;;;;;;;14.50;11.80;;;;;16.90;101479.00;;;;10481527;28;20255;-76
2023/06/07 06:28:47;;;;;;;17.90;12.70;;;;;17.10;101480.00;;;;10453519;28;20214;-76
2023/06/07 06:33:50;;;;;;;18.50;12.32;;;;;17.20;101489.00;;;;10435861;28;20209;-75
2023/06/07 06:38:52;;;;;;;16.35;11.68;;;;;17.30;101489.00;;;;10497874;28;20712;-77
2023/06/07 06:43:54;;;;;;;20.45;12.25;;;;;17.90;101494.00;;;;10526888;28;20201;-76
2023/06/07 06:48:57;;;;;;;18.50;11.90;;;;;17.90;101495.00;;;;10485805;28;20260;-76
2023/06/07 06:54:13;;;;;;;19.75;11.48;;;;;17.70;101494.00;;;;10519796;28;20202;-77
2023/06/07 06:59:16;;;;;;;17.27;11.52;;;;;17.60;101499.00;;;;10521472;27;20279;-76
2023/06/07 07:04:18;;;;;;;18.90;12.23;;;;;17.90;101494.00;;;;10537602;27;20251;-76
2023/06/07 07:09:20;;;;;;;24.23;13.07;;;;;18.30;101507.00;;;;10460053;27;20241;-80
2023/06/07 07:14:22;;;;;;;16.58;10.77;;;;;18.80;101501.00;;;;10475059;28;20232;-78
2023/06/07 07:19:24;;;;;;;15.93;11.30;;;;;19.30;101514.00;;;;10479942;28;20204;-77
2023/06/07 07:24:26;;;;;;;13.50;10.82;;;;;19.40;101512.00;;;;10465879;27;20197;-78
2023/06/07 07:29:28;;;;;;;15.02;11.63;;;;;19.50;101518.00;;;;10443138;28;20754;-78
2023/06/07 07:34:30;;;;;;;15.40;11.38;;;;;19.90;101519.00;;;;10456382;28;20211;-79
2023/06/07 07:39:32;;;;;;;14.70;11.40;;;;;21.60;101514.00;;;;10470045;27;20246;-77
2023/06/07 07:44:35;;;;;;;17.73;10.93;;;;;22.80;101514.00;;;;10525498;27;20203;-79
2023/06/07 07:49:36;;;;;;;18.70;11.43;;;;;23.70;101522.00;;;;10476535;28;20249;-77
2023/06/07 07:54:39;;;;;;;17.80;11.48;;;;;21.90;101526.00;;;;10480688;28;20208;-73
2023/06/07 07:59:41;;;;;;;15.68;10.25;;;;;21.30;101523.00;;;;10502611;28;20540;-80
2023/06/07 08:04:43;;;;;;;16.20;10.70;;;;;20.60;101521.00;;;;10502556;28;20205;-79
2023/06/07 08:09:45;;;;;;;19.92;14.07;;;;;20.10;101518.00;;;;10506833;28;20700;-79
2023/06/07 08:14:47;;;;;;;17.80;11.48;;;;;19.80;101522.00;;;;10485106;28;20198;-79
2023/06/07 08:19:48;;;;;;;21.65;12.75;;;;;19.60;101512.00;;;;10501966;28;20201;-79
2023/06/07 08:24:50;;;;;;;19.90;11.93;;;;;19.80;101508.00;;;;10493620;28;20201;-76
2023/06/07 08:29:52;;;;;;;22.95;12.73;;;;;20.10;101506.00;;;;10509865;27;20221;-76
2023/06/07 08:34:55;;;;;;;23.77;12.45;;;;;20.60;101508.00;;;;10514218;27;20204;-73
2023/06/07 08:39:57;;;;;;;17.85;12.20;;;;;21.20;101498.00;;;;10510364;27;20250;-80
2023/06/07 08:45:00;;;;;;;24.30;11.95;;;;;21.80;101506.00;;;;10490765;28;20272;-80
2023/06/07 08:50:03;;;;;;;19.67;12.45;;;;;22.50;101502.00;;;;10479439;28;20679;-80
2023/06/07 08:55:10;;;;;;;18.77;12.65;;;;;23.60;101497.00;;;;10494761;28;20280;-81
2023/06/07 09:00:13;;;;;;;17.73;12.73;;;;;24.80;101500.00;;;;10504721;28;20566;-80
2023/06/07 09:05:15;;;;;;;18.02;11.07;;;;;26.20;101500.00;;;;10496957;27;20213;-81
2023/06/07 09:10:17;;;;;;;13.77;11.00;;;;;26.90;101497.00;;;;10524147;28;20284;-82
2023/06/07 09:15:21;;;;;;;20.45;12.75;;;;;27.50;101494.00;;;;10515391;27;20205;-81
2023/06/07 09:20:26;;;;;;;17.17;11.00;;;;;27.90;101483.00;;;;10500666;27;20286;-82
2023/06/07 09:25:30;;;;;;;15.48;10.30;;;;;28.60;101489.00;;;;10498256;27;20562;-80
2023/06/07 09:30:32;;;;;;;14.35;10.98;;;;;28.60;101495.00;;;;10503737;27;20232;-81
2023/06/07 09:35:35;;;;;;;13.63;10.98;;;;;28.90;101491.00;;;;10488818;28;20228;-78
2023/06/07 09:40:49;;;;;;;17.10;11.25;;;;;29.20;101484.00;;;;10488603;28;20204;-82
2023/06/07 09:45:55;;;;;;;14.30;10.93;;;;;29.70;101484.00;;;;10486373;28;20205;-81
2023/06/07 09:50:58;;;;;;;20.10;10.57;;;;;29.90;101484.00;;;;10537521;27;20582;-81
2023/06/07 09:56:16;;;;;;;16.50;10.02;;;;;30.00;101478.00;;;;10522512;27;20222;-80
2023/06/07 10:01:34;;;;;;;16.60;10.68;;;;;30.00;101474.00;;;;10540185;27;20197;-81
2023/06/07 10:06:45;;;;;;;14.10;10.82;;;;;30.10;101465.00;;;;10526428;27;20567;-81
2023/06/07 10:11:53;;;;;;;17.00;10.20;;;;;30.50;101463.00;;;;10539580;27;20577;-81
2023/06/07 10:17:03;;;;;;;14.27;10.45;;;;;30.80;101464.00;;;;10519452;28;20280;-83
2023/06/07 10:22:17;;;;;;;14.77;10.02;;;;;30.90;101450.00;;;;10512466;28;20198;-82
2023/06/07 10:27:23;;;;;;;14.88;9.55;;;;;31.30;101458.00;;;;10510775;28;20228;-83
2023/06/07 10:32:29;;;;;;;15.15;9.57;;;;;30.60;101466.00;;;;10504741;28;20303;-73
2023/06/07 10:37:33;;;;;;;14.27;8.95;;;;;30.00;101449.00;;;;10508069;28;20205;-72
2023/06/07 10:42:40;;;;;;;14.77;9.85;;;;;31.20;101442.00;;;;10494809;28;20292;-73
2023/06/07 10:47:43;;;;;;;14.40;10.20;;;;;31.80;101452.00;;;;10494136;28;20606;-72
2023/06/07 10:52:55;;;;;;;12.60;8.80;;;;;32.30;101445.00;;;;10496036;28;20232;-72
2023/06/07 10:57:58;;;;;;;14.25;8.55;;;;;32.70;101441.00;;;;10498575;28;20249;-83
2023/06/07 11:03:08;;;;;;;14.70;9.82;;;;;32.90;101437.00;;;;10479459;28;20225;-84
2023/06/07 11:08:23;;;;;;;12.07;8.70;;;;;32.90;101437.00;;;;10496259;28;20201;-82
2023/06/07 11:13:46;;;;;;;13.73;8.75;;;;;33.00;101431.00;;;;10480222;28;20212;-81
2023/06/07 11:18:55;;;;;;;13.18;8.45;;;;;33.00;101429.00;;;;10505312;28;20244;-82
2023/06/07 11:24:10;;;;;;;11.90;8.38;;;;;34.20;101422.00;;;;10480521;28;20539;-80
2023/06/07 11:29:15;;;;;;;10.25;7.80;;;;;35.60;101419.00;;;;10467016;28;20249;-82
2023/06/07 11:34:17;;;;;;;14.50;8.05;;;;;35.40;101422.00;;;;10493810;28;20211;-83
2023/06/07 11:39:20;;;;;;;11.63;8.63;;;;;33.20;101421.00;;;;10503314;28;20206;-81
2023/06/07 11:44:22;;;;;;;13.07;8.23;;;;;33.90;101416.00;;;;10528276;27;20199;-80
2023/06/07 11:49:28;;;;;;;16.88;9.23;;;;;34.30;101422.00;;;;10499696;27;20716;-80
2023/06/07 11:54:30;;;;;;;13.75;9.05;;;;;30.90;101425.00;;;;10547596;27;20207;-80
2023/06/07 11:59:32;;;;;;;13.00;8.57;;;;;31.60;101414.00;;;;10513747;27;20228;-79
2023/06/07 12:04:35;;;;;;;11.10;7.95;;;;;32.50;101409.00;;;;10514191;28;20221;-80
2023/06/07 12:09:41;;;;;;;11.45;7.63;;;;;33.30;101409.00;;;;10513035;27;20204;-78
2023/06/07 12:14:46;;;;;;;7.85;6.32;;;;;33.40;101411.00;;;;10523834;27;20675;-83
2023/06/07 12:19:48;;;;;;;8.65;6.22;;;;;32.10;101415.00;;;;10513273;28;20247;-80
2023/06/07 12:24:50;;;;;;;11.52;5.38;;;;;32.30;101408.00;;;;10502674;28;20241;-81
2023/06/07 12:29:56;;;;;;;9.40;5.57;;;;;32.70;101396.00;;;;10523460;27;20284;-80
2023/06/07 12:35:05;;;;;;;9.50;6.10;;;;;32.60;101403.00;;;;10514914;28;20231;-81
2023/06/07 12:40:08;;;;;;;9.68;6.25;;;;;32.10;101391.00;;;;10538733;27;20229;-81
2023/06/07 12:45:10;;;;;;;10.98;7.15;;;;;32.30;101390.00;;;;10539779;27;20263;-81
2023/06/07 12:50:12;;;;;;;9.93;6.95;;;;;33.20;101390.00;;;;10503486;28;20208;-80
2023/06/07 12:55:15;;;;;;;6.72;4.55;;;;;31.40;101391.00;;;;10541999;27;20276;-80
2023/06/07 13:00:17;;;;;;;9.20;5.15;;;;;29.40;101404.00;;;;10536762;27;20647;-82
2023/06/07 13:05:20;;;;;;;10.25;5.68;;;;;27.60;101401.00;;;;10484120;28;20235;-80
2023/06/07 13:10:24;;;;;;;18.77;6.57;;;;;26.00;101407.00;;;;10531496;27;20196;-80
2023/06/07 13:15:26;;;;;;;9.27;6.28;;;;;24.80;101399.00;;;;10529649;27;20214;-80
2023/06/07 13:20:28;;;;;;;12.52;5.85;;;;;24.00;101400.00;;;;10506597;28;20222;-80
2023/06/07 13:25:31;;;;;;;9.25;5.15;;;;;23.90;101388.00;;;;10493686;28;20285;-79
2023/06/07 13:30:33;;;;;;;9.07;5.88;;;;;24.60;101390.00;;;;10536098;27;20203;-79
2023/06/07 13:35:35;;;;;;;8.43;6.07;;;;;25.10;101384.00;;;;10537838;27;20299;-80
2023/06/07 13:40:39;;;;;;;9.35;6.80;;;;;25.60;101393.00;;;;10480218;28;20213;-79
2023/06/07 13:45:42;;;;;;;8.00;5.45;;;;;25.50;101391.00;;;;10508328;28;20205;-80
2023/06/07 13:50:44;;;;;;;7.78;5.28;;;;;25.50;101389.00;;;;10539691;27;20663;-78
2023/06/07 13:55:47;;;;;;;7.78;4.63;;;;;25.50;101386.00;;;;10532296;28;20236;-79
2023/06/07 14:00:49;;;;;;;6.55;5.07;;;;;25.50;101393.00;;;;10519760;28;20278;-79
2023/06/07 14:05:51;;;;;;;6.55;5.03;;;;;25.60;101378.00;;;;10514258;28;20205;-81
2023/06/07 14:10:54;;;;;;;5.63;4.55;;;;;26.10;101376.00;;;;10513614;27;20193;-80
2023/06/07 14:16:02;;;;;;;6.10;4.53;;;;;26.90;101362.00;;;;10517188;27;20291;-81
2023/06/07 14:21:05;;;;;;;8.30;6.45;;;;;27.80;101348.00;;;;10494728;28;20220;-82
2023/06/07 14:26:07;;;;;;;6.80;4.60;;;;;28.60;101356.00;;;;10523223;28;20287;-80
2023/06/07 14:31:09;;;;;;;9.55;4.10;;;;;28.40;101351.00;;;;10535884;28;20204;-82
2023/06/07 14:36:12;;;;;;;7.32;4.13;;;;;27.90;101341.00;;;;10510898;28;20255;-82
2023/06/07 14:41:14;;;;;;;6.38;4.10;;;;;27.80;101333.00;;;;10524898;28;20278;-81
2023/06/07 14:46:16;;;;;;;9.63;4.43;;;;;27.90;101326.00;;;;10481642;28;20236;-82
2023/06/07 14:51:23;;;;;;;7.55;4.38;;;;;28.20;101329.00;;;;10520004;28;20211;-81
2023/06/07 14:56:25;;;;;;;13.90;4.70;;;;;27.80;101331.00;;;;10521192;28;20602;-81
2023/06/07 15:01:27;;;;;;;4.80;3.95;;;;;27.00;101330.00;;;;10510789;28;20698;-80
2023/06/07 15:06:29;;;;;;;4.57;3.40;;;;;26.10;101328.00;;;;10495558;28;20287;-80
2023/06/07 15:11:31;;;;;;;4.68;4.18;;;;;25.40;101316.00;;;;10506144;28;20231;-81
2023/06/07 15:16:33;;;;;;;3.88;3.53;;;;;25.10;101320.00;;;;10521922;27;20565;-81
2023/06/07 15:21:36;;;;;;;5.65;3.65;;;;;24.80;101316.00;;;;10506435;28;20213;-81
2023/06/07 15:26:40;;;;;;;5.95;4.05;;;;;24.60;101310.00;;;;10538744;27;20626;-82
2023/06/07 15:31:42;;;;;;;8.40;3.50;;;;;25.00;101311.00;;;;10507840;27;20206;-82
2023/06/07 15:36:44;;;;;;;5.40;3.92;;;;;25.40;101309.00;;;;10515619;28;20232;-82
2023/06/07 15:41:51;;;;;;;5.15;3.92;;;;;25.50;101319.00;;;;10540308;27;20283;-83
2023/06/07 15:46:53;;;;;;;6.65;4.00;;;;;25.90;101312.00;;;;10546840;28;20201;-84
2023/06/07 15:51:55;;;;;;;6.93;4.22;;;;;26.40;101305.00;;;;10530117;27;20208;-82
2023/06/07 15:56:57;;;;;;;5.60;4.80;;;;;26.30;101301.00;;;;10504114;28;20630;-83
2023/06/07 16:02:00;;;;;;;5.35;4.18;;;;;25.90;101287.00;;;;10524789;27;20713;-84
2023/06/07 16:07:03;;;;;;;6.43;4.85;;;;;25.80;101288.00;;;;10497138;28;20208;-82
2023/06/07 16:12:05;;;;;;;8.88;5.22;;;;;25.90;101292.00;;;;10541696;27;20253;-84
2023/06/07 16:17:07;;;;;;;8.07;5.20;;;;;26.60;101273.00;;;;10524784;27;20201;-85
2023/06/07 16:22:10;;;;;;;6.40;4.78;;;;;26.40;101271.00;;;;10536035;27;20216;-82
2023/06/07 16:27:12;;;;;;;5.45;4.40;;;;;25.70;101269.00;;;;10506236;28;20216;-83
2023/06/07 16:32:14;;;;;;;9.63;5.22;;;;;25.70;101262.00;;;;10531256;27;20208;-84
2023/06/07 16:37:16;;;;;;;7.53;4.75;;;;;25.90;101257.00;;;;10539581;27;20207;-83
2023/06/07 16:42:18;;;;;;;9.48;4.93;;;;;26.40;101248.00;;;;10505439;28;20611;-84
2023/06/07 16:47:20;;;;;;;9.50;5.20;;;;;26.20;101242.00;;;;10506157;28;20677;-85
2023/06/07 16:52:23;;;;;;;8.55;4.80;;;;;25.90;101248.00;;;;10507112;28;20192;-84
2023/06/07 16:57:25;;;;;;;7.65;4.80;;;;;25.70;101241.00;;;;10553199;27;20212;-85
2023/06/07 17:02:27;;;;;;;6.00;4.55;;;;;25.40;101232.00;;;;10542008;28;20222;-83
2023/06/07 17:07:29;;;;;;;9.25;4.30;;;;;25.50;101238.00;;;;10505933;27;20224;-84
2023/06/07 17:12:31;;;;;;;8.43;4.65;;;;;25.70;101239.00;;;;10531783;27;20197;-84
2023/06/07 17:17:33;;;;;;;7.15;4.70;;;;;25.40;101244.00;;;;10496834;27;20201;-84
2023/06/07 17:22:35;;;;;;;8.50;4.43;;;;;24.90;101249.00;;;;10511858;27;20223;-85
2023/06/07 17:27:37;;;;;;;7.28;4.65;;;;;24.40;101247.00;;;;10515466;27;20541;-83
2023/06/07 17:32:39;;;;;;;7.63;4.50;;;;;24.10;101249.00;;;;10511041;27;20197;-83
2023/06/07 17:37:42;;;;;;;6.53;4.50;;;;;24.10;101242.00;;;;10507791;28;20746;-84
2023/06/07 17:42:44;;;;;;;8.00;4.50;;;;;24.10;101242.00;;;;10504814;27;20248;-84
2023/06/07 17:47:51;;;;;;;10.30;5.00;;;;;24.10;101236.00;;;;10523056;28;20285;-85
2023/06/07 17:52:54;;;;;;;10.77;5.32;;;;;24.40;101230.00;;;;10521219;27;20697;-84
2023/06/07 17:57:57;;;;;;;6.35;4.35;;;;;24.70;101233.00;;;;10518432;27;20209;-84
2023/06/07 18:02:59;;;;;;;5.80;4.57;;;;;24.90;101225.00;;;;10521968;27;20209;-84
2023/06/07 18:08:03;;;;;;;8.48;5.30;;;;;25.10;101222.00;;;;10519241;28;20686;-83
2023/06/07 18:13:05;;;;;;;6.40;4.65;;;;;24.80;101233.00;;;;10505458;28;20201;-84
2023/06/07 18:18:07;;;;;;;7.50;5.07;;;;;24.40;101227.00;;;;10521618;28;20229;-84
2023/06/07 18:23:12;;;;;;;7.78;4.93;;;;;23.90;101233.00;;;;10527330;27;20654;-84
2023/06/07 18:28:14;;;;;;;8.43;4.53;;;;;23.60;101238.00;;;;10517772;28;20663;-84
2023/06/07 18:33:16;;;;;;;8.52;5.03;;;;;23.40;101236.00;;;;10500377;28;20207;-84
2023/06/07 18:38:18;;;;;;;12.02;4.65;;;;;23.30;101234.00;;;;10504471;28;20209;-83
2023/06/07 18:43:20;;;;;;;9.25;4.63;;;;;23.10;101249.00;;;;10495508;28;20239;-84
2023/06/07 18:48:23;;;;;;;5.47;4.30;;;;;23.00;101243.00;;;;10507405;27;20616;-83
2023/06/07 18:53:25;;;;;;;10.90;4.40;;;;;22.90;101237.00;;;;10507774;27;20201;-82
2023/06/07 18:58:28;;;;;;;8.30;4.95;;;;;22.80;101244.00;;;;10487274;28;20254;-83
2023/06/07 19:03:30;;;;;;;8.30;4.57;;;;;22.80;101246.00;;;;10499766;28;20225;-83
2023/06/07 19:08:33;;;;;;;8.35;4.60;;;;;22.60;101237.00;;;;10517494;28;20255;-83
2023/06/07 19:13:35;;;;;;;8.20;4.03;;;;;22.50;101240.00;;;;10520092;28;20205;-83
2023/06/07 19:18:38;;;;;;;7.72;3.65;;;;;22.40;101234.00;;;;10507462;28;20205;-83
2023/06/07 19:23:39;;;;;;;6.55;4.32;;;;;22.20;101240.00;;;;10534121;27;20694;-84
2023/06/07 19:28:42;;;;;;;6.75;3.92;;;;;22.10;101234.00;;;;10523415;27;20566;-82
2023/06/07 19:33:45;;;;;;;7.65;4.38;;;;;21.90;101234.00;;;;10548265;27;20279;-84
2023/06/07 19:38:47;;;;;;;10.68;4.68;;;;;21.80;101238.00;;;;10543339;27;20237;-84
2023/06/07 19:43:49;;;;;;;10.07;4.47;;;;;21.80;101246.00;;;;10538313;27;20220;-85
2023/06/07 19:48:51;;;;;;;9.90;4.43;;;;;21.70;101241.00;;;;10556309;27;20221;-83
2023/06/07 19:53:56;;;;;;;7.10;4.32;;;;;21.60;101251.00;;;;10535441;28;20207;-83
2023/06/07 19:58:59;;;;;;;7.57;4.07;;;;;21.50;101259.00;;;;10554773;27;20737;-81
2023/06/07 20:04:01;;;;;;;10.30;4.22;;;;;21.50;101258.00;;;;10515012;27;20217;-83
2023/06/07 20:09:04;;;;;;;11.43;4.70;;;;;21.50;101261.00;;;;10534772;28;20189;-81
2023/06/07 20:14:06;;;;;;;7.18;4.32;;;;;21.40;101249.00;;;;10557088;28;20260;-81
2023/06/07 20:19:08;;;;;;;7.53;5.00;;;;;21.40;101258.00;;;;10515335;28;20197;-80
2023/06/07 20:24:12;;;;;;;7.50;4.60;;;;;21.20;101261.00;;;;10547483;28;20209;-79
2023/06/07 20:29:15;;;;;;;9.48;4.65;;;;;21.20;101258.00;;;;11016197;22;20216;-81
2023/06/07 20:34:21;;;;;;;8.65;4.35;;;;;21.10;101266.00;;;;10590154;28;20204;-84
2023/06/07 20:39:49;;;;;;;7.85;4.18;;;;;20.90;101273.00;;;;11996040;22;20197;31
2023/06/07 20:44:51;;;;;;;9.45;5.15;;;;;20.80;101273.00;;;;10505787;28;20190;-82
2023/06/07 20:49:55;;;;;;;6.25;4.28;;;;;20.70;101270.00;;;;10490679;28;20198;-78
2023/06/07 20:54:57;;;;;;;10.55;4.55;;;;;20.40;101272.00;;;;11321798;22;20242;-83
2023/06/07 21:00:03;;;;;;;10.45;4.88;;;;;20.20;101274.00;;;;10618021;27;20226;-80
2023/06/07 21:05:09;;;;;;;8.48;4.65;;;;;20.10;101274.00;;;;10980491;22;20744;-83
2023/06/07 21:10:11;;;;;;;10.30;4.80;;;;;19.90;101264.00;;;;10504678;28;20212;-84
2023/06/07 21:15:13;;;;;;;10.57;5.45;;;;;19.90;101276.00;;;;10490391;28;20182;-84
2023/06/07 21:26:01;;;;;;;10.65;5.60;;;;;19.70;101276.00;;;;10437173;23;20226;-83
2023/06/07 21:31:03;;;;;;;10.05;5.72;;;;;19.60;101270.00;;;;10585601;23;20215;-85
2023/06/07 21:36:05;;;;;;;9.10;5.55;;;;;19.50;101275.00;;;;10608333;23;20265;-84
2023/06/07 21:41:08;;;;;;;13.25;6.45;;;;;19.40;101270.00;;;;10396252;28;20204;-84
2023/06/07 21:46:10;;;;;;;10.07;5.80;;;;;19.40;101289.00;;;;10386032;28;20207;-84
2023/06/07 21:51:13;;;;;;;10.95;5.80;;;;;19.30;101286.00;;;;10362741;28;20220;-72
2023/06/07 21:56:15;;;;;;;10.32;5.07;;;;;19.20;101293.00;;;;10361197;28;20199;-72
2023/06/07 22:01:18;;;;;;;14.70;5.68;;;;;19.10;101288.00;;;;10354785;28;20258;-71
2023/06/07 22:06:20;;;;;;;13.02;5.90;;;;;19.20;101285.00;;;;10354654;28;20211;-72
2023/06/07 22:11:22;;;;;;;11.52;6.80;;;;;19.20;101286.00;;;;10361622;28;20226;-73
2023/06/07 22:16:25;;;;;;;9.85;6.03;;;;;19.20;101283.00;;;;10376630;28;20204;-82
2023/06/07 22:21:30;;;;;;;15.77;6.43;;;;;19.20;101293.00;;;;10375449;28;20204;-84
2023/06/07 22:26:32;;;;;;;11.77;5.60;;;;;19.10;101285.00;;;;10380557;28;20203;-86
2023/06/07 22:31:36;;;;;;;10.48;5.93;;;;;19.00;101298.00;;;;10372277;28;20254;-85
2023/06/07 22:36:40;;;;;;;9.02;6.50;;;;;18.90;101293.00;;;;10387611;28;20200;-85
2023/06/07 22:41:42;;;;;;;12.75;7.10;;;;;18.70;101286.00;;;;10362549;28;20204;-75
2023/06/07 22:46:45;;;;;;;15.80;7.43;;;;;18.60;101283.00;;;;10346251;28;20200;-75
2023/06/07 22:51:48;;;;;;;10.77;6.80;;;;;18.40;101281.00;;;;10348880;28;20246;-75
2023/06/07 22:56:50;;;;;;;12.70;6.38;;;;;18.40;101273.00;;;;10351754;28;20199;-75
2023/06/07 23:01:53;;;;;;;13.63;6.93;;;;;18.30;101278.00;;;;10346433;28;20204;-74
2023/06/07 23:06:58;;;;;;;13.43;7.47;;;;;18.10;101280.00;;;;10361656;28;20238;-75
2023/06/07 23:12:00;;;;;;;15.18;7.45;;;;;18.00;101288.00;;;;10364333;28;20609;-75
2023/06/07 23:17:02;;;;;;;14.60;6.93;;;;;17.90;101282.00;;;;10364758;28;20215;-79
2023/06/07 23:22:04;;;;;;;13.25;7.43;;;;;17.80;101284.00;;;;10375801;28;20204;-79
2023/06/07 23:27:06;;;;;;;14.82;7.72;;;;;17.70;101282.00;;;;10373294;28;20199;-79
2023/06/07 23:32:08;;;;;;;10.93;7.20;;;;;17.60;101287.00;;;;10371997;28;20265;-79
2023/06/07 23:37:10;;;;;;;14.32;7.50;;;;;17.50;101278.00;;;;10381083;28;20724;-79
2023/06/07 23:42:12;;;;;;;17.00;7.80;;;;;17.30;101280.00;;;;10380785;28;20753;-74
2023/06/07 23:47:14;;;;;;;14.85;7.43;;;;;17.30;101271.00;;;;10375827;28;20669;-75
2023/06/07 23:52:18;;;;;;;16.75;7.25;;;;;17.20;101285.00;;;;10356213;28;20278;-73
2023/06/07 23:57:20;;;;;;;13.77;8.25;;;;;17.10;101279.00;;;;10379980;28;20203;-74
